createdAt,value
2023-10-16T00:04:39.260Z,100863.97
2023-10-16T00:09:42.972Z,100856.34
2023-10-16T00:14:46.295Z,100857.47
2023-10-16T00:19:55.417Z,100857.56
2023-10-16T00:25:00.005Z,100859.50
2023-10-16T00:30:09.131Z,100868.25
2023-10-16T00:35:13.779Z,100866.66
2023-10-16T00:40:30.704Z,100860.78
2023-10-16T00:45:47.010Z,100863.56
2023-10-16T00:50:52.321Z,100868.16
2023-10-16T00:55:57.456Z,100866.38
2023-10-16T01:01:04.653Z,100863.09
2023-10-16T01:06:17.095Z,100865.81
2023-10-16T01:11:21.967Z,100860.81
2023-10-16T01:16:25.382Z,100850.69
2023-10-16T01:21:32.634Z,100852.34
2023-10-16T01:26:37.461Z,100849.09
2023-10-16T01:31:41.750Z,100849.09
2023-10-16T01:36:47.334Z,100848.25
2023-10-16T01:41:53.584Z,100856.13
2023-10-16T01:46:57.109Z,100852.59
2023-10-16T01:52:00.398Z,100851.94
2023-10-16T01:57:08.413Z,100858.25
2023-10-16T02:02:12.764Z,100859.44
2023-10-16T02:07:16.094Z,100859.56
2023-10-16T02:12:21.440Z,100858.91
2023-10-16T02:17:24.748Z,100865.88
2023-10-16T02:22:28.835Z,100856.28
2023-10-16T02:27:33.506Z,100854.63
2023-10-16T02:32:37.481Z,100853.97
2023-10-16T02:37:40.903Z,100863.59
2023-10-16T02:42:52.295Z,100851.81
2023-10-16T02:47:56.274Z,100866.66
2023-10-16T02:52:59.876Z,100865.81
2023-10-16T02:58:05.689Z,100868.50
2023-10-16T03:03:11.015Z,100871.22
2023-10-16T03:08:15.096Z,100873.81
2023-10-16T03:13:19.818Z,100861.91
2023-10-16T03:18:23.505Z,100871.47
2023-10-16T03:23:29.953Z,100874.06
2023-10-16T03:28:34.588Z,100867.38
2023-10-16T03:33:38.260Z,100865.78
2023-10-16T03:38:42.338Z,100870.06
2023-10-16T03:43:46.970Z,100866.59
2023-10-16T03:48:50.881Z,100874.50
2023-10-16T03:53:58.016Z,100857.50
2023-10-16T03:59:03.880Z,100866.16
2023-10-16T04:04:15.810Z,100854.97
2023-10-16T04:09:19.288Z,100854.22
2023-10-16T04:14:45.944Z,100853.75
2023-10-16T04:20:01.126Z,100855.53
2023-10-16T04:25:08.840Z,100850.41
2023-10-16T04:30:31.559Z,100850.41
2023-10-16T04:35:51.776Z,100857.44
2023-10-16T04:41:08.835Z,100854.84
2023-10-16T04:46:22.198Z,100853.19
2023-10-16T04:51:52.781Z,100853.19
2023-10-16T04:57:20.188Z,100853.09
2023-10-16T05:02:35.076Z,100859.88
2023-10-16T05:07:54.634Z,100854.66
2023-10-16T05:13:15.264Z,100850.25
2023-10-16T05:18:44.123Z,100858.88
2023-10-16T05:24:04.784Z,100862.19
2023-10-16T05:29:25.907Z,100858.78
2023-10-16T05:34:49.277Z,100861.28
2023-10-16T05:40:11.255Z,100857.69
2023-10-16T05:45:32.237Z,100861.94
2023-10-16T05:50:55.013Z,100872.16
2023-10-16T05:56:15.901Z,100859.16
2023-10-16T06:01:37.667Z,100864.28
2023-10-16T06:07:02.033Z,100868.44
2023-10-16T06:12:23.486Z,100869.78
2023-10-16T06:17:26.830Z,100867.09
2023-10-16T06:22:51.812Z,100872.59
2023-10-16T06:27:57.682Z,100880.97
2023-10-16T06:33:03.537Z,100878.84
2023-10-16T06:38:12.602Z,100886.94
2023-10-16T06:43:16.128Z,100894.00
2023-10-16T06:48:19.311Z,100886.41
2023-10-16T06:53:24.782Z,100891.91
2023-10-16T06:58:29.281Z,100898.06
2023-10-16T07:03:35.023Z,100889.00
2023-10-16T07:08:40.236Z,100884.94
2023-10-16T07:13:43.573Z,100883.31
2023-10-16T07:18:46.853Z,100884.44
2023-10-16T07:23:54.606Z,100871.22
2023-10-16T07:29:00.003Z,100871.88
2023-10-16T07:34:05.713Z,100870.56
2023-10-16T07:39:10.661Z,100872.91
2023-10-16T07:44:13.880Z,100883.06
2023-10-16T07:49:17.470Z,100881.81
2023-10-16T07:54:22.728Z,100877.66
2023-10-16T07:59:26.765Z,100864.81
2023-10-16T08:04:36.747Z,100868.59
2023-10-16T08:10:19.763Z,100876.63
2023-10-16T08:15:24.238Z,100881.28
2023-10-16T08:20:47.454Z,100881.75
2023-10-16T08:25:52.191Z,100877.63
2023-10-16T08:30:55.919Z,100880.19
2023-10-16T08:36:00.648Z,100873.06
2023-10-16T08:41:15.987Z,100881.91
2023-10-16T08:46:25.414Z,100875.03
2023-10-16T08:51:29.845Z,100869.81
2023-10-16T08:56:35.898Z,100875.66
2023-10-16T09:01:39.273Z,100864.22
2023-10-16T09:06:43.066Z,100875.44
2023-10-16T09:11:48.725Z,100877.25
2023-10-16T09:16:54.298Z,100876.16
2023-10-16T09:21:57.704Z,100875.91
2023-10-16T09:27:03.616Z,100875.31
2023-10-16T09:32:07.722Z,100878.63
2023-10-16T09:37:22.090Z,100884.06
2023-10-16T09:42:27.209Z,100886.53
2023-10-16T09:47:32.075Z,100884.22
2023-10-16T09:52:35.413Z,100880.69
2023-10-16T09:57:50.818Z,100888.69
2023-10-16T10:02:57.016Z,100891.94
2023-10-16T10:08:02.378Z,100885.22
2023-10-16T10:13:11.316Z,100880.16
2023-10-16T10:18:36.650Z,100883.81
2023-10-16T10:23:39.866Z,100877.47
2023-10-16T10:28:47.013Z,100876.59
2023-10-16T10:33:53.904Z,100879.78
2023-10-16T10:39:48.950Z,100886.44
2023-10-16T10:45:22.417Z,100875.47
2023-10-16T10:50:29.239Z,100871.88
2023-10-16T10:55:32.602Z,100869.13
2023-10-16T11:00:47.125Z,100866.50
2023-10-16T11:05:51.934Z,100859.44
2023-10-16T11:10:57.263Z,100864.69
2023-10-16T11:16:04.142Z,100854.44
2023-10-16T11:21:08.402Z,100844.41
2023-10-16T11:26:15.120Z,100842.59
2023-10-16T11:31:21.961Z,100841.06
2023-10-16T11:36:25.420Z,100836.25
2023-10-16T11:41:30.394Z,100845.25
2023-10-16T11:46:38.994Z,100836.66
2023-10-16T11:51:42.488Z,100831.41
2023-10-16T11:56:45.689Z,100823.09
2023-10-16T12:07:16.423Z,100828.25
2023-10-16T12:12:22.006Z,100813.97
2023-10-16T12:17:29.662Z,100808.28
2023-10-16T12:22:33.015Z,100810.38
2023-10-16T12:27:38.069Z,100815.38
2023-10-16T12:32:43.142Z,100812.31
2023-10-16T12:37:47.429Z,100818.53
2023-10-16T12:42:50.609Z,100813.28
2023-10-16T12:47:58.887Z,100805.53
2023-10-16T12:53:02.944Z,100799.56
2023-10-16T12:58:12.157Z,100797.72
2023-10-16T13:03:17.026Z,100802.13
2023-10-16T13:08:21.814Z,100798.25
2023-10-16T13:13:25.125Z,100798.78
2023-10-16T13:18:30.086Z,100795.88
2023-10-16T13:23:45.801Z,100799.47
2023-10-16T13:28:50.292Z,100797.69
2023-10-16T13:33:57.273Z,100797.94
2023-10-16T13:39:00.609Z,100791.34
2023-10-16T13:44:05.335Z,100797.88
2023-10-16T13:49:15.284Z,100795.06
2023-10-16T13:54:18.690Z,100799.81
2023-10-16T13:59:22.952Z,100802.16
2023-10-16T14:04:35.477Z,100796.06
2023-10-16T14:09:39.400Z,100792.75
2023-10-16T14:14:42.655Z,100790.09
2023-10-16T14:19:49.058Z,100790.53
2023-10-16T14:24:53.188Z,100785.84
2023-10-16T14:30:00.681Z,100781.69
2023-10-16T14:35:06.297Z,100785.19
2023-10-16T14:40:16.803Z,100778.66
2023-10-16T14:45:24.238Z,100775.25
2023-10-16T14:50:33.640Z,100775.66
2023-10-16T14:56:10.664Z,100778.84
2023-10-16T15:01:17.565Z,100773.69
2023-10-16T15:06:22.569Z,100787.53
2023-10-16T15:11:27.444Z,100780.03
2023-10-16T15:16:30.955Z,100783.75
2023-10-16T15:21:36.378Z,100778.59
2023-10-16T15:26:39.795Z,100781.19
2023-10-16T15:31:43.146Z,100780.19
2023-10-16T15:36:51.057Z,100780.72
2023-10-16T15:41:54.479Z,100784.03
2023-10-16T15:46:59.488Z,100787.56
2023-10-16T15:52:07.125Z,100792.50
2023-10-16T15:57:12.551Z,100790.53
2023-10-16T16:02:17.703Z,100787.75
2023-10-16T16:07:22.940Z,100793.28
2023-10-16T16:12:26.812Z,100789.44
2023-10-16T16:17:32.227Z,100794.38
2023-10-16T16:22:37.106Z,100801.22
2023-10-16T16:27:41.412Z,100794.16
2023-10-16T16:28:22.757Z,100828.25
2023-10-16T16:32:46.472Z,100805.72
2023-10-16T16:37:56.948Z,100811.47
2023-10-16T16:43:00.248Z,100819.81
2023-10-16T16:48:04.056Z,100818.44
2023-10-16T16:53:08.638Z,100824.88
2023-10-16T16:58:12.447Z,100819.06
2023-10-16T17:03:16.356Z,100825.25
2023-10-16T17:08:21.414Z,100824.66
2023-10-16T17:13:27.450Z,100826.03
2023-10-16T17:18:30.857Z,100833.28
2023-10-16T17:23:36.041Z,100833.66
2023-10-16T17:28:39.285Z,100831.28
2023-10-16T17:33:43.785Z,100833.06
2023-10-16T17:38:48.919Z,100846.44
2023-10-16T17:43:56.351Z,100845.00
2023-10-16T17:49:00.318Z,100841.94
2023-10-16T17:54:10.123Z,100847.66
2023-10-16T17:59:13.776Z,100848.25
2023-10-16T18:04:20.021Z,100833.19
2023-10-16T18:09:28.857Z,100841.66
2023-10-16T18:14:41.683Z,100843.66
2023-10-16T18:19:50.768Z,100842.00
2023-10-16T18:25:01.365Z,100854.13
2023-10-16T18:30:09.013Z,100842.00
2023-10-16T18:35:12.856Z,100845.44
2023-10-16T18:40:20.266Z,100837.56
2023-10-16T18:45:25.679Z,100849.00
2023-10-16T18:50:29.534Z,100850.66
2023-10-16T18:55:35.094Z,100850.66
2023-10-16T19:00:38.420Z,100845.69
2023-10-16T19:05:41.899Z,100847.69
2023-10-16T19:10:46.620Z,100851.66
2023-10-16T19:15:50.051Z,100853.38
2023-10-16T19:20:57.898Z,100855.19
2023-10-16T19:26:06.113Z,100863.41
2023-10-16T19:31:12.789Z,100855.06
2023-10-16T19:36:16.813Z,100867.56
2023-10-16T19:41:22.978Z,100869.34
2023-10-16T19:46:26.376Z,100868.72
2023-10-16T19:51:30.103Z,100871.47
2023-10-16T19:56:35.212Z,100871.72
2023-10-16T20:01:45.974Z,100880.28
2023-10-16T20:06:50.480Z,100877.06
2023-10-16T20:12:02.439Z,100881.22
2023-10-16T20:17:14.205Z,100871.47
2023-10-16T20:22:19.893Z,100874.09
2023-10-16T20:27:26.776Z,100877.53
2023-10-16T20:32:30.760Z,100881.00
2023-10-16T20:37:36.319Z,100881.81
2023-10-16T20:42:41.868Z,100878.25
2023-10-16T20:47:45.434Z,100880.84
2023-10-16T20:52:49.461Z,100870.53
2023-10-16T20:57:55.699Z,100876.72
2023-10-16T21:03:04.881Z,100872.53
2023-10-16T21:08:10.585Z,100876.34
2023-10-16T21:13:15.368Z,100880.25
2023-10-16T21:18:18.703Z,100870.97
2023-10-16T21:23:22.556Z,100878.44
2023-10-16T21:28:28.275Z,100880.44
2023-10-16T21:33:32.365Z,100879.00
2023-10-16T21:38:35.577Z,100880.06
2023-10-16T21:43:40.227Z,100878.63
2023-10-16T21:48:44.105Z,100878.88
2023-10-16T21:53:47.661Z,100880.16
2023-10-16T21:58:52.385Z,100888.09
2023-10-16T22:03:56.211Z,100885.63
2023-10-16T22:09:01.058Z,100881.34
2023-10-16T22:14:05.742Z,100881.44
2023-10-16T22:19:09.172Z,100889.28
2023-10-16T22:24:13.656Z,100887.63
2023-10-16T22:29:18.865Z,100883.34
2023-10-16T22:34:23.694Z,100884.19
2023-10-16T22:39:29.038Z,100885.94
2023-10-16T22:44:33.806Z,100876.34
2023-10-16T22:49:37.187Z,100872.16
2023-10-16T22:54:40.478Z,100877.38
2023-10-16T22:59:45.585Z,100869.78
2023-10-16T23:04:49.324Z,100864.66
2023-10-16T23:09:56.897Z,100870.81
2023-10-16T23:15:04.294Z,100870.09
2023-10-16T23:20:15.626Z,100869.63
2023-10-16T23:25:21.711Z,100861.06
2023-10-16T23:30:27.065Z,100860.94
2023-10-16T23:35:31.021Z,100861.06
2023-10-16T23:40:46.896Z,100855.94
2023-10-16T23:45:52.659Z,100856.88
2023-10-16T23:50:57.699Z,100858.06
2023-10-16T23:56:10.336Z,100861.00
